Center Port, New York
Current Conditions -  °F | °C
As of 1:53 AM on Saturday 29 Nov 2014 (Local Time) from KFRG Reporting Station
Clear Clear  
Wind Chill: 26°   Ceiling: Unl
Heat Index: 26°   Visibility: 10mi
Dew Point: 14°   Wind: 0mph
Humidity: 60%   Direction: NA
Pressure: 30.3"   Gusts: NA
Location:  40.8931°N, 73.3717°W
Report Text: KFRG 290653Z AUTO 00000KT 10SM CLR M03/M10 A3030 RMK AO2 SLP259 T10331100
Loading
Personal Weather Stations






























Interactive Weather Map New forecast layout! Learn more

10-Day Weather Forecast

Advertisements
Track Severe Weather on mobile